createdAt,value
2018-05-23T00:09:56.000Z,37.258
2018-05-23T00:19:56.000Z,37.29
2018-05-23T00:29:56.000Z,37.332
2018-05-23T00:39:56.000Z,37.384
2018-05-23T00:49:56.000Z,37.395
2018-05-23T00:59:56.000Z,37.491
2018-05-23T01:09:56.000Z,37.522
2018-05-23T01:19:56.000Z,37.541
2018-05-23T01:29:57.000Z,37.672
2018-05-23T01:39:56.000Z,37.703
2018-05-23T01:49:56.000Z,37.768
2018-05-23T01:59:56.000Z,37.821
2018-05-23T02:09:57.000Z,37.818
2018-05-23T02:19:57.000Z,37.817
2018-05-23T02:29:56.000Z,37.827
2018-05-23T02:39:56.000Z,37.923
2018-05-23T02:49:56.000Z,37.956
2018-05-23T02:59:56.000Z,38.03
2018-05-23T03:09:56.000Z,38.05
2018-05-23T03:19:56.000Z,38.071
2018-05-23T03:29:56.000Z,38.135
2018-05-23T03:39:56.000Z,38.189
2018-05-23T03:49:56.000Z,38.209
2018-05-23T03:59:56.000Z,38.32
2018-05-23T04:09:56.000Z,38.627
2018-05-23T04:19:56.000Z,38.769
2018-05-23T04:29:56.000Z,38.869
2018-05-23T04:39:56.000Z,39.066
2018-05-23T04:49:56.000Z,39.165
2018-05-23T04:59:56.000Z,39.264
2018-05-23T05:09:56.000Z,39.374
2018-05-23T05:19:56.000Z,39.517
2018-05-23T05:29:56.000Z,39.573
2018-05-23T05:39:56.000Z,39.696
2018-05-23T05:49:56.000Z,39.697
2018-05-23T05:59:56.000Z,39.815
2018-05-23T06:09:56.000Z,39.968
2018-05-23T06:19:56.000Z,39.804
2018-05-23T06:29:56.000Z,39.699
2018-05-23T06:39:56.000Z,39.669
2018-05-23T06:49:56.000Z,39.617
2018-05-23T06:59:56.000Z,39.499
2018-05-23T07:09:56.000Z,39.468
2018-05-23T07:19:56.000Z,39.526
2018-05-23T07:29:56.000Z,39.573
2018-05-23T07:39:56.000Z,39.434
2018-05-23T07:49:56.000Z,39.122
2018-05-23T07:59:56.000Z,38.613
2018-05-23T08:09:56.000Z,38.69
2018-05-23T08:29:57.000Z,38.522
2018-05-23T08:39:57.000Z,38.371
2018-05-23T08:49:57.000Z,38.265
2018-05-23T08:59:57.000Z,38.256
2018-05-23T09:09:57.000Z,38.04
2018-05-23T09:19:58.000Z,37.846
2018-05-23T09:29:57.000Z,37.676
2018-05-23T09:39:59.000Z,37.333
2018-05-23T09:49:57.000Z,37.238
2018-05-23T09:59:57.000Z,36.905
2018-05-23T10:09:57.000Z,36.669
2018-05-23T10:49:57.000Z,36.666
2018-05-23T10:59:57.000Z,36.938
2018-05-23T11:10:00.000Z,36.992
2018-05-23T11:19:57.000Z,36.982
2018-05-23T11:29:59.000Z,36.96
2018-05-23T11:39:57.000Z,36.952
2018-05-23T11:49:57.000Z,37.004
2018-05-23T11:59:57.000Z,36.885
2018-05-23T12:09:57.000Z,36.876
2018-05-23T12:19:57.000Z,36.844
2018-05-23T12:29:57.000Z,36.8
2018-05-23T12:39:57.000Z,36.777
2018-05-23T12:49:58.000Z,36.779
2018-05-23T12:59:57.000Z,36.573
2018-05-23T13:09:57.000Z,36.563
2018-05-23T13:19:57.000Z,36.369
2018-05-23T13:29:57.000Z,36.293
2018-05-23T13:39:57.000Z,36.054
2018-05-23T13:49:57.000Z,35.913
2018-05-23T13:59:57.000Z,35.838
2018-05-23T14:09:57.000Z,35.806
2018-05-23T14:19:57.000Z,35.915
2018-05-23T14:29:57.000Z,35.806
2018-05-23T14:39:57.000Z,35.611
2018-05-23T14:49:57.000Z,35.818
2018-05-23T14:59:57.000Z,35.795
2018-05-23T15:09:57.000Z,35.83
2018-05-23T15:19:57.000Z,35.796
2018-05-23T15:29:58.000Z,35.818
2018-05-23T15:39:57.000Z,35.818
2018-05-23T15:49:57.000Z,35.708
2018-05-23T15:59:57.000Z,35.741
2018-05-23T16:09:57.000Z,35.785
2018-05-23T16:19:58.000Z,35.829
2018-05-23T16:29:57.000Z,35.774
2018-05-23T16:39:58.000Z,35.775
2018-05-23T16:49:58.000Z,35.681
2018-05-23T16:59:58.000Z,35.652
2018-05-23T17:09:58.000Z,34.319
2018-05-23T17:19:58.000Z,34.776
2018-05-23T17:29:58.000Z,35.32
2018-05-23T17:39:58.000Z,35.263
2018-05-23T17:49:58.000Z,35.271
2018-05-23T17:59:58.000Z,35.057
2018-05-23T18:09:58.000Z,35.164
2018-05-23T18:19:58.000Z,35.216
2018-05-23T18:30:02.000Z,34.993
2018-05-23T18:39:58.000Z,34.847
2018-05-23T18:49:58.000Z,34.993
2018-05-23T18:59:58.000Z,35.047
2018-05-23T19:09:58.000Z,35.01
2018-05-23T19:19:58.000Z,34.654
2018-05-23T19:29:58.000Z,35.34
2018-05-23T19:39:58.000Z,35.373
2018-05-23T19:49:58.000Z,35.316
2018-05-23T19:59:58.000Z,35.214
2018-05-23T20:09:58.000Z,34.77
2018-05-23T20:19:58.000Z,35.146
2018-05-23T20:29:58.000Z,34.799
2018-05-23T20:39:58.000Z,34.852
2018-05-23T20:49:58.000Z,35.015
2018-05-23T20:59:58.000Z,35.233
2018-05-23T21:09:58.000Z,35.352
2018-05-23T21:19:58.000Z,35.505
2018-05-23T21:29:58.000Z,35.679
2018-05-23T21:39:58.000Z,35.798
2018-05-23T21:49:58.000Z,35.874
2018-05-23T21:59:58.000Z,36.003
2018-05-23T22:09:58.000Z,36.166
2018-05-23T22:19:58.000Z,36.273
2018-05-23T22:29:58.000Z,36.358
2018-05-23T22:39:58.000Z,36.566
2018-05-23T22:49:58.000Z,36.629
2018-05-23T22:59:58.000Z,36.694
2018-05-23T23:09:58.000Z,36.736
2018-05-23T23:19:58.000Z,36.756
2018-05-23T23:29:58.000Z,36.819
2018-05-23T23:39:58.000Z,36.949
2018-05-23T23:49:59.000Z,37.012
2018-05-23T23:59:58.000Z,37.12
